Decoded Metar for KMRY (MONTEREY in CA, USA) (IATA:MRY) | Meteo·Mobile Aviation Weather
aviador You're here:

KMRY Decoded Metar

MONTEREY in CA, USA
Report Time2018-09-21 09:54:00
UTC Time2018-09-21 10:09:42
Flight Rules vfr VFR
WindCalm
Visibility9999 m
Phenomena:N/A
Clouds:N/A
Expected CloudBase > 1,200 ft AGL from Temp-Dew spread
CeilingNone
Temp12°C (ISA -3)
Dew Point09°C (82% RH)
AAT11.8°C
QNH1012 hPa
Density Alt102 ft
Elevation217 ft
Report Wrong Elevation
Raw Report
KMRY 210954Z AUTO 00000KT 10SM CLR 12/09 A2988 RMK AO2 SLP130
T01220089=

Extra information for KMRY:More info

Metar Taf Metar & Taf Last 4 Metars F.Rules Stats Wind Profile Meteogram Temp Stats Airport Information Weather charts Add Link Nearby VenuesMetar ALERT Operation Metar Decoded Social comments

AIRNAV info for KMRY